Time;durP1;ratioP1;P1;durP2;ratioP2;P2;SDS_P1;SDS_P2;PMS_P1;PMS_P2;Temp;Humidity;BMP_temperature;BMP_pressure;BME280_temperature;BME280_humidity;BME280_pressure;Samples;Min_cycle;Max_cycle;Signal;HPM_P1;HPM_P2
2022/05/25 00:01:02;;;;;;;22.17;19.95;;;;;;;15.50;89.74;98416.42;2171108;82;20929;-82
2022/05/25 00:04:02;;;;;;;21.57;19.27;;;;;;;15.50;89.76;98426.50;2171795;82;20949;-81
2022/05/25 00:07:02;;;;;;;20.92;18.62;;;;;;;15.50;89.80;98424.31;2170257;82;21192;-82
2022/05/25 00:10:03;;;;;;;21.20;19.07;;;;;;;15.50;89.67;98430.89;2172203;82;20949;-82
2022/05/25 00:13:03;;;;;;;23.40;21.23;;;;;;;15.50;89.78;98429.13;2171998;82;21448;-81
2022/05/25 00:16:04;;;;;;;37.10;30.90;;;;;;;15.52;89.53;98428.66;2170808;82;20909;-81
2022/05/25 00:22:23;;;;;;;26.17;20.62;;;;;;;15.47;89.27;98425.67;2170095;81;21348;-82
2022/05/25 00:25:23;;;;;;;21.30;19.10;;;;;;;15.49;89.71;98424.77;2170425;82;20997;-81
2022/05/25 00:28:25;;;;;;;21.90;19.80;;;;;;;15.50;89.89;98426.50;2169434;82;21000;-82
2022/05/25 00:31:24;;;;;;;24.10;19.65;;;;;;;15.49;89.89;98422.13;2169869;82;20934;-81
2022/05/25 00:34:24;;;;;;;22.07;19.87;;;;;;;15.51;89.99;98428.69;2169651;82;20980;-81
2022/05/25 00:37:25;;;;;;;23.52;21.02;;;;;;;15.51;89.95;98422.11;2169522;81;20981;-81
2022/05/25 00:40:25;;;;;;;25.75;23.00;;;;;;;15.53;89.88;98434.80;2169713;82;20922;-83
2022/05/25 00:43:25;;;;;;;25.08;20.50;;;;;;;15.55;89.96;98433.02;2169947;82;20941;-82
2022/05/25 00:46:26;;;;;;;22.25;20.00;;;;;;;15.57;89.92;98431.23;2169746;82;21099;-82
2022/05/25 00:49:27;;;;;;;21.20;19.12;;;;;;;15.57;89.83;98435.17;2171691;82;21060;-82
2022/05/25 00:52:28;;;;;;;21.42;19.42;;;;;;;15.56;89.55;98438.25;2171865;82;20997;-82
2022/05/25 00:55:28;;;;;;;20.55;18.52;;;;;;;15.52;89.25;98440.95;2171463;82;20953;-82
2022/05/25 00:58:28;;;;;;;21.35;19.27;;;;;;;15.48;89.38;98445.83;2171087;82;21366;-83
2022/05/25 01:01:28;;;;;;;22.58;20.32;;;;;;;15.41;89.13;98451.63;2171105;82;21325;-82
2022/05/25 01:04:29;;;;;;;24.10;21.62;;;;;;;15.36;89.23;98453.44;2171118;82;20981;-84
2022/05/25 01:07:29;;;;;;;26.52;23.92;;;;;;;15.35;89.84;98452.15;2170418;82;20984;-82
2022/05/25 01:10:32;;;;;;;22.87;20.43;;;;;;;15.32;89.67;98453.06;2171331;82;20957;-83
2022/05/25 01:13:30;;;;;;;21.97;19.55;;;;;;;15.25;89.73;98457.53;2171533;82;20980;-83
2022/05/25 01:16:30;;;;;;;33.23;23.87;;;;;;;15.28;90.44;98461.44;2170298;82;21333;-83
2022/05/25 01:19:31;;;;;;;28.15;22.20;;;;;;;15.29;90.54;98460.98;2170722;82;21008;-84
2022/05/25 01:22:31;;;;;;;17.62;16.10;;;;;;;15.27;90.06;98455.75;2172449;82;20945;-83
2022/05/25 01:25:31;;;;;;;23.18;19.07;;;;;;;15.22;89.67;98456.25;2170157;82;21328;-82
2022/05/25 01:28:32;;;;;;;17.87;16.27;;;;;;;15.20;89.89;98459.34;2171014;82;21061;-82
2022/05/25 01:31:32;;;;;;;18.75;16.97;;;;;;;15.17;89.63;98454.13;2170242;82;21005;-83
2022/05/25 01:34:33;;;;;;;19.57;17.70;;;;;;;15.12;89.30;98461.20;2169875;82;20994;-82
2022/05/25 01:37:34;;;;;;;18.52;16.90;;;;;;;15.07;89.47;98465.65;2172191;81;21016;-82
2022/05/25 01:40:33;;;;;;;18.87;17.17;;;;;;;15.04;89.56;98467.00;2170356;82;20989;-82
2022/05/25 01:43:34;;;;;;;20.57;16.60;;;;;;;15.01;89.86;98467.03;2171297;82;21381;-82
2022/05/25 01:46:34;;;;;;;19.30;16.55;;;;;;;14.98;89.93;98459.19;2172062;82;21012;-82
2022/05/25 01:49:35;;;;;;;19.25;17.23;;;;;;;14.93;89.45;98457.06;2171437;82;21032;-83
2022/05/25 01:52:37;;;;;;;18.20;16.60;;;;;;;14.89;89.49;98459.30;2173050;82;20988;-82
2022/05/25 01:55:38;;;;;;;18.65;16.95;;;;;;;14.81;88.81;98459.83;2162537;82;20945;-81
2022/05/25 01:58:38;;;;;;;20.23;18.05;;;;;;;14.71;88.61;98464.28;2171219;82;20933;-82
2022/05/25 02:01:38;;;;;;;21.97;19.10;;;;;;;14.65;88.65;98469.16;2171085;82;20937;-84
2022/05/25 02:04:39;;;;;;;30.32;19.30;;;;;;;14.58;88.76;98463.54;2170717;82;21021;-82
2022/05/25 02:07:39;;;;;;;30.92;19.62;;;;;;;14.49;88.82;98464.95;2170867;82;21413;-82
2022/05/25 02:10:41;;;;;;;23.18;21.10;;;;;;;14.42;89.03;98467.20;2161162;82;20913;-82
2022/05/25 02:13:42;;;;;;;36.88;19.60;;;;;;;14.38;89.35;98468.09;2171100;82;20980;-81
2022/05/25 02:16:42;;;;;;;21.02;19.12;;;;;;;14.34;89.33;98469.00;2169326;82;21000;-77
2022/05/25 02:19:42;;;;;;;49.75;19.95;;;;;;;14.30;89.58;98475.16;2171007;82;21023;-83
2022/05/25 02:22:43;;;;;;;25.97;20.45;;;;;;;14.26;89.56;98470.82;2171723;82;21293;-81
2022/05/25 02:25:43;;;;;;;22.00;18.85;;;;;;;14.20;89.15;98473.50;2169817;82;21012;-82
2022/05/25 02:28:44;;;;;;;47.70;20.75;;;;;;;14.12;88.97;98470.94;2171613;82;21012;-81
2022/05/25 02:31:45;;;;;;;37.40;19.17;;;;;;;14.09;89.16;98472.28;2170782;82;20989;-81
2022/05/25 02:34:45;;;;;;;19.90;17.95;;;;;;;14.01;88.60;98474.96;2169486;82;20977;-81
2022/05/25 02:37:45;;;;;;;21.23;19.25;;;;;;;13.92;88.15;98461.91;2169475;81;21008;-81
2022/05/25 02:40:45;;;;;;;23.12;15.85;;;;;;;13.85;88.19;98463.25;2169562;82;21429;-81
2022/05/25 02:43:46;;;;;;;19.75;17.85;;;;;;;13.81;88.46;98468.09;2169474;82;20929;-82
2022/05/25 02:46:46;;;;;;;58.60;18.92;;;;;;;13.75;88.68;98461.58;2169627;82;21038;-81
2022/05/25 02:49:46;;;;;;;22.62;17.98;;;;;;;13.67;88.27;98470.36;2169659;82;21377;-82
2022/05/25 02:52:47;;;;;;;31.68;18.55;;;;;;;13.60;88.39;98475.22;2170173;82;20980;-81
2022/05/25 02:55:47;;;;;;;90.80;22.30;;;;;;;13.58;88.68;98476.98;2170142;82;20961;-83
2022/05/25 02:58:48;;;;;;;35.48;16.55;;;;;;;13.60;89.01;98469.97;2171765;82;20973;-82
2022/05/25 03:01:48;;;;;;;19.45;16.40;;;;;;;13.63;88.93;98469.09;2169611;82;20905;-82
2022/05/25 03:04:49;;;;;;;17.00;15.30;;;;;;;13.60;88.54;98474.34;2169584;82;20918;-81
2022/05/25 03:07:49;;;;;;;20.35;15.93;;;;;;;13.59;88.59;98476.54;2171728;82;21380;-79
2022/05/25 03:10:49;;;;;;;16.65;14.90;;;;;;;13.58;88.24;98485.29;2169302;82;20973;-80
2022/05/25 03:13:50;;;;;;;19.95;16.93;;;;;;;13.55;88.48;98482.24;2170657;82;20922;-82
2022/05/25 03:16:50;;;;;;;21.05;17.25;;;;;;;13.60;88.85;98486.15;2170638;82;20949;-81
2022/05/25 03:19:50;;;;;;;18.65;15.63;;;;;;;13.63;88.72;98483.51;2170525;82;21448;-81
2022/05/25 03:22:51;;;;;;;25.37;19.80;;;;;;;13.67;88.77;98489.16;2170452;82;20937;-81
2022/05/25 03:25:51;;;;;;;21.87;18.80;;;;;;;13.75;89.06;98495.67;2170568;82;21047;-82
2022/05/25 03:28:52;;;;;;;17.57;15.85;;;;;;;13.81;89.12;98499.13;2171121;82;21060;-82
2022/05/25 03:31:53;;;;;;;35.58;19.62;;;;;;;13.87;88.85;98499.13;2170321;82;21000;-80
2022/05/25 03:34:53;;;;;;;19.23;17.35;;;;;;;13.90;88.60;98499.09;2169492;82;20988;-80
2022/05/25 03:37:54;;;;;;;18.25;16.32;;;;;;;13.89;88.05;98495.17;2170758;81;21020;-81
2022/05/25 03:40:54;;;;;;;18.32;16.25;;;;;;;13.87;87.71;98495.59;2171452;81;20980;-81
2022/05/25 03:43:54;;;;;;;18.95;16.70;;;;;;;13.88;87.85;98496.05;2170586;81;21289;-80
2022/05/25 03:46:55;;;;;;;16.77;15.28;;;;;;;13.91;88.29;98498.22;2171462;81;21001;-81
2022/05/25 03:49:55;;;;;;;18.07;16.27;;;;;;;14.02;88.45;98496.83;2171084;82;21360;-80
2022/05/25 03:52:56;;;;;;;18.57;16.90;;;;;;;14.13;88.27;98497.62;2171231;82;20989;-81
2022/05/25 03:55:56;;;;;;;18.23;16.60;;;;;;;14.26;88.01;98494.45;2171977;82;21321;-81
2022/05/25 03:58:56;;;;;;;18.77;16.90;;;;;;;14.44;88.28;98493.45;2170607;82;21009;-81
2022/05/25 04:01:57;;;;;;;17.17;15.58;;;;;;;14.62;88.21;98493.27;2169216;81;20968;-83
2022/05/25 04:05:10;;;;;;;17.02;15.23;;;;;;;14.78;87.85;98492.70;2171054;82;20989;-82
2022/05/25 04:08:10;;;;;;;16.42;14.80;;;;;;;14.95;87.68;98497.33;2172181;81;20968;-82
2022/05/25 04:11:11;;;;;;;21.50;18.02;;;;;;;15.19;88.14;98500.13;2172844;82;20996;-82
2022/05/25 04:14:12;;;;;;;16.90;15.10;;;;;;;15.40;88.10;98506.42;2171496;82;20956;-82
2022/05/25 04:17:11;;;;;;;19.30;17.12;;;;;;;15.59;87.82;98505.33;2171607;82;20936;-81
2022/05/25 04:20:12;;;;;;;20.60;18.50;;;;;;;15.75;87.83;98511.27;2170110;81;21066;-82
2022/05/25 04:23:12;;;;;;;26.48;19.85;;;;;;;15.88;87.76;98513.28;2170093;82;20956;-83
2022/05/25 04:26:12;;;;;;;23.30;19.92;;;;;;;15.99;87.89;98508.73;2169442;82;20909;-82
2022/05/25 04:29:13;;;;;;;25.88;20.20;;;;;;;16.08;87.90;98501.14;2170980;82;21000;-80
2022/05/25 04:32:13;;;;;;;25.55;22.95;;;;;;;16.15;87.91;98500.14;2170852;82;20973;-80
2022/05/25 04:35:13;;;;;;;24.35;21.37;;;;;;;16.22;88.08;98501.34;2169650;82;20976;-81
2022/05/25 04:38:15;;;;;;;25.75;23.07;;;;;;;16.26;87.93;98490.30;2169874;82;21707;-81
2022/05/25 04:41:14;;;;;;;36.53;25.92;;;;;;;16.32;87.96;98494.16;2169903;82;20908;-83
2022/05/25 04:44:15;;;;;;;20.85;18.65;;;;;;;16.42;87.85;98491.78;2171703;81;21019;-82
2022/05/25 04:47:15;;;;;;;17.02;15.18;;;;;;;16.48;87.05;98489.08;2170643;82;21067;-79
2022/05/25 04:50:16;;;;;;;18.67;17.05;;;;;;;16.50;86.51;98488.61;2167793;82;20970;-80
2022/05/25 04:53:16;;;;;;;24.30;21.87;;;;;;;16.60;86.50;98488.44;2168886;82;20901;-80
2022/05/25 04:59:35;;;;;;;24.67;22.27;;;;;;;17.06;86.15;98487.16;2170024;81;20901;-81
2022/05/25 05:02:36;;;;;;;23.15;20.88;;;;;;;17.29;85.61;98495.92;2170280;82;20996;-80
2022/05/25 05:05:36;;;;;;;26.20;23.20;;;;;;;17.51;85.34;98491.97;2169134;81;21329;-81
2022/05/25 05:08:37;;;;;;;25.97;23.40;;;;;;;17.67;84.67;98500.45;2169658;82;21009;-82
2022/05/25 05:11:37;;;;;;;24.43;21.12;;;;;;;17.69;83.69;98500.83;2170132;82;20898;-83
2022/05/25 05:14:37;;;;;;;23.15;20.75;;;;;;;17.75;84.00;98503.78;2170009;81;20948;-82
2022/05/25 05:17:38;;;;;;;25.25;22.82;;;;;;;18.02;83.59;98504.92;2169634;82;20924;-82
2022/05/25 05:20:39;;;;;;;25.20;22.73;;;;;;;18.16;83.32;98500.19;2171739;81;21028;-84
2022/05/25 05:23:39;;;;;;;32.75;29.57;;;;;;;18.21;82.93;98493.50;2169945;81;20913;-81
2022/05/25 05:26:43;;;;;;;26.20;23.30;;;;;;;18.25;82.44;98494.71;2169528;82;20940;-83
2022/05/25 05:29:43;;;;;;;26.37;23.67;;;;;;;18.26;82.62;98488.52;2169749;81;20952;-82
2022/05/25 05:32:43;;;;;;;29.50;26.55;;;;;;;18.35;82.24;98494.90;2169356;82;20937;-82
2022/05/25 05:35:44;;;;;;;28.73;26.00;;;;;;;18.49;81.37;98493.68;2171158;82;21384;-84
2022/05/25 05:38:45;;;;;;;26.60;23.90;;;;;;;18.51;80.66;98488.77;2174151;82;21000;-83
2022/05/25 05:41:44;;;;;;;27.55;21.68;;;;;;;18.60;80.41;98491.63;2175369;82;21385;-84
2022/05/25 05:44:45;;;;;;;23.12;20.85;;;;;;;18.79;79.63;98491.59;2171469;82;20960;-85
2022/05/25 05:47:45;;;;;;;25.23;20.45;;;;;;;19.09;79.14;98488.59;2170780;82;20972;-83
2022/05/25 05:50:46;;;;;;;23.83;21.65;;;;;;;19.35;77.87;98493.14;2170052;82;21404;-84
2022/05/25 05:53:46;;;;;;;25.05;22.62;;;;;;;19.57;77.50;98495.61;2170149;82;20968;-81
2022/05/25 05:56:47;;;;;;;26.35;23.80;;;;;;;19.81;76.08;98498.42;2170487;82;20933;-84
2022/05/25 05:59:47;;;;;;;25.37;23.10;;;;;;;19.78;76.13;98501.16;2170075;82;20898;-83
2022/05/25 06:02:48;;;;;;;26.90;24.20;;;;;;;19.76;75.53;98503.86;2169450;82;20968;-83
2022/05/25 06:05:48;;;;;;;26.82;24.23;;;;;;;19.70;75.07;98504.05;2168746;82;20969;-82
2022/05/25 06:08:49;;;;;;;28.32;22.35;;;;;;;19.53;75.67;98502.36;2167865;82;20992;-79
2022/05/25 06:11:49;;;;;;;35.43;25.75;;;;;;;19.29;75.55;98508.74;2169075;82;20941;-82
2022/05/25 06:14:49;;;;;;;29.23;25.25;;;;;;;19.12;76.30;98509.67;2169994;82;21402;-84
2022/05/25 06:21:09;;;;;;;30.68;25.48;;;;;;;18.73;77.60;98511.12;2169144;81;21000;-83
2022/05/25 06:24:09;;;;;;;28.55;25.72;;;;;;;18.52;78.47;98506.82;2169724;82;20953;-79
2022/05/25 06:27:11;;;;;;;32.65;28.38;;;;;;;18.40;79.19;98503.58;2169099;82;20978;-82
2022/05/25 06:30:10;;;;;;;32.25;28.95;;;;;;;18.45;79.06;98504.33;2170284;82;20932;-82
2022/05/25 06:33:10;;;;;;;31.07;27.02;;;;;;;18.39;79.22;98509.77;2170769;81;20941;-79
2022/05/25 06:36:11;;;;;;;28.90;25.77;;;;;;;18.35;79.37;98513.39;2169525;82;20917;-84
2022/05/25 06:39:11;;;;;;;27.20;24.45;;;;;;;18.44;79.73;98507.87;2169434;82;21025;-84
2022/05/25 06:42:11;;;;;;;27.93;25.12;;;;;;;18.53;79.86;98508.55;2170783;82;20940;-83
2022/05/25 06:45:12;;;;;;;36.05;24.77;;;;;;;18.55;79.86;98505.42;2169470;81;21005;-84
2022/05/25 06:48:12;;;;;;;27.82;24.92;;;;;;;18.54;79.90;98503.23;2167925;82;20984;-84
2022/05/25 06:51:13;;;;;;;27.13;24.50;;;;;;;18.53;79.74;98494.02;2170995;82;21019;-84
2022/05/25 06:54:13;;;;;;;26.65;24.02;;;;;;;18.56;79.67;98493.94;2170319;81;21749;-84
2022/05/25 06:57:13;;;;;;;26.65;24.10;;;;;;;18.53;79.65;98501.50;2168254;81;20969;-84
2022/05/25 07:00:14;;;;;;;33.25;26.00;;;;;;;18.56;79.66;98503.19;2168925;82;20941;-83
2022/05/25 07:03:14;;;;;;;30.43;27.27;;;;;;;18.54;79.40;98503.23;2170655;82;20929;-83
2022/05/25 07:06:15;;;;;;;28.15;25.55;;;;;;;18.57;79.12;98507.57;2167590;82;21005;-82
2022/05/25 07:09:15;;;;;;;29.20;26.40;;;;;;;18.60;79.18;98508.81;2169834;82;20994;-83
2022/05/25 07:12:15;;;;;;;87.65;27.82;;;;;;;18.68;79.35;98516.13;2169994;81;20925;-83
2022/05/25 07:15:16;;;;;;;33.45;30.05;;;;;;;18.86;79.40;98524.03;2169585;82;21701;-84
2022/05/25 07:18:16;;;;;;;31.30;27.48;;;;;;;19.03;78.77;98523.98;2168097;81;21371;-83
2022/05/25 07:21:17;;;;;;;30.60;27.45;;;;;;;19.11;78.10;98525.59;2167790;82;20985;-84
2022/05/25 07:24:17;;;;;;;32.53;29.48;;;;;;;19.15;77.49;98529.89;2169588;82;20920;-82
2022/05/25 07:27:17;;;;;;;32.98;29.48;;;;;;;19.14;77.38;98528.16;2167973;82;20961;-83
2022/05/25 07:30:18;;;;;;;33.00;29.42;;;;;;;19.19;77.36;98533.73;2167626;82;21433;-81
2022/05/25 07:33:18;;;;;;;31.25;28.07;;;;;;;19.32;76.71;98528.95;2167223;82;20929;-82
2022/05/25 07:36:19;;;;;;;33.35;29.90;;;;;;;19.31;76.66;98525.91;2168162;82;20973;-85
2022/05/25 07:39:19;;;;;;;33.65;29.48;;;;;;;19.38;76.48;98520.39;2169616;81;20960;-81
2022/05/25 07:42:19;;;;;;;32.48;29.30;;;;;;;19.40;76.44;98517.70;2168488;82;21408;-84
2022/05/25 07:45:20;;;;;;;30.95;27.95;;;;;;;19.44;75.99;98521.13;2168188;82;20953;-83
2022/05/25 07:48:20;;;;;;;30.45;26.82;;;;;;;19.56;75.59;98515.50;2168342;82;21286;-83
2022/05/25 07:51:21;;;;;;;31.62;28.65;;;;;;;19.72;75.53;98522.08;2168859;82;21051;-84
2022/05/25 07:54:21;;;;;;;34.63;31.30;;;;;;;19.74;75.10;98520.25;2169186;82;20897;-84
2022/05/25 07:57:23;;;;;;;33.63;30.45;;;;;;;19.72;74.67;98521.63;2160045;82;20905;-83
2022/05/25 08:00:25;;;;;;;34.15;30.62;;;;;;;19.60;74.80;98520.66;2168054;82;20929;-83
2022/05/25 08:06:43;;;;;;;32.98;29.60;;;;;;;19.56;75.17;98512.40;2169710;81;20983;-84
2022/05/25 08:09:44;;;;;;;31.87;28.70;;;;;;;19.59;74.88;98510.12;2169198;82;21012;-83
2022/05/25 08:12:44;;;;;;;33.15;29.95;;;;;;;19.53;74.50;98514.27;2169986;82;21045;-83
2022/05/25 08:15:44;;;;;;;32.95;29.55;;;;;;;19.38;74.93;98524.36;2169907;82;21034;-83
2022/05/25 08:18:45;;;;;;;32.80;29.42;;;;;;;19.29;75.43;98527.72;2169924;82;21301;-81
2022/05/25 08:21:45;;;;;;;35.90;32.40;;;;;;;19.27;75.83;98527.77;2167703;82;21028;-82
2022/05/25 08:24:46;;;;;;;34.60;31.20;;;;;;;19.21;76.43;98527.94;2167839;82;20933;-83
2022/05/25 08:27:46;;;;;;;37.23;33.33;;;;;;;19.10;77.01;98530.02;2169820;82;21032;-84
2022/05/25 08:30:46;;;;;;;36.08;32.48;;;;;;;19.08;76.96;98529.19;2168614;82;20961;-84
2022/05/25 08:33:47;;;;;;;33.48;30.23;;;;;;;19.13;77.09;98533.03;2169335;82;20948;-83
2022/05/25 08:36:47;;;;;;;35.55;31.97;;;;;;;19.22;77.31;98539.39;2168987;82;21715;-83
2022/05/25 08:39:48;;;;;;;34.90;31.40;;;;;;;19.22;77.09;98537.61;2167514;81;21056;-82
2022/05/25 08:42:48;;;;;;;35.95;32.53;;;;;;;19.21;77.35;98536.33;2167194;82;20898;-81
2022/05/25 08:45:48;;;;;;;35.33;31.48;;;;;;;19.19;77.54;98542.12;2168804;82;20981;-80
2022/05/25 08:48:50;;;;;;;35.73;32.33;;;;;;;19.10;77.54;98539.27;2168523;82;21019;-83
2022/05/25 08:51:49;;;;;;;34.65;31.12;;;;;;;19.12;77.72;98546.71;2167960;82;21427;-83
2022/05/25 08:54:49;;;;;;;38.70;34.25;;;;;;;18.95;77.84;98543.16;2167826;82;20973;-82
2022/05/25 08:57:50;;;;;;;39.90;35.58;;;;;;;18.83;78.52;98541.30;2168222;82;20972;-82
2022/05/25 09:01:00;;;;;;;39.13;35.33;;;;;;;18.70;79.28;98536.78;2168214;82;20933;-81
2022/05/25 09:04:03;;;;;;;41.88;37.48;;;;;;;18.55;80.26;98535.81;2167760;82;20925;-83
2022/05/25 09:07:01;;;;;;;42.62;38.17;;;;;;;18.42;81.34;98533.48;2169201;82;20980;-80
2022/05/25 09:10:03;;;;;;;39.20;35.13;;;;;;;18.28;82.07;98537.36;2168577;82;21597;-81
2022/05/25 09:13:02;;;;;;;38.28;34.25;;;;;;;18.06;83.27;98543.11;2169364;82;20997;-81
2022/05/25 09:16:18;;;;;;;39.53;35.58;;;;;;;17.80;83.21;98545.02;2168039;82;20933;-79
2022/05/25 09:19:17;;;;;;;42.17;37.75;;;;;;;17.62;84.40;98556.39;2167411;82;20935;-81
2022/05/25 09:22:19;;;;;;;41.10;36.58;;;;;;;17.45;85.34;98556.73;2167896;82;21003;-80
2022/05/25 09:25:18;;;;;;;22.02;17.92;;;;;;;17.34;86.60;98566.61;2166909;82;20941;-82
2022/05/25 09:28:19;;;;;;;21.60;15.98;;;;;;;16.90;86.31;98581.49;2168244;82;20925;-82
2022/05/25 09:31:19;;;;;;;19.85;14.98;;;;;;;16.05;87.52;98594.20;2168847;82;20980;-82
2022/05/25 09:34:19;;;;;;;18.57;15.43;;;;;;;15.41;90.41;98612.50;2168735;82;20965;-84
2022/05/25 09:37:20;;;;;;;18.73;15.65;;;;;;;15.13;91.84;98611.48;2168799;82;20976;-83
2022/05/25 09:40:20;;;;;;;31.35;14.65;;;;;;;14.87;92.44;98621.37;2170144;81;21478;-86
2022/05/25 09:43:21;;;;;;;31.20;14.93;;;;;;;14.58;93.43;98636.89;2171313;82;20929;-85
2022/05/25 09:46:21;;;;;;;11.45;10.40;;;;;;;14.34;94.59;98627.84;2171613;82;20973;-85
2022/05/25 09:52:45;;;;;;;7.40;5.87;;;;;;;13.88;93.53;98629.42;2171289;81;21428;-84
2022/05/25 09:55:44;;;;;;;9.58;5.03;;;;;;;13.57;94.15;98631.70;2170961;82;20977;-84
2022/05/25 09:58:44;;;;;;;9.53;5.87;;;;;;;13.38;92.66;98657.11;2171225;82;20957;-85
2022/05/25 10:01:46;;;;;;;8.63;6.17;;;;;;;13.24;93.35;98660.20;2171035;82;20989;-82
2022/05/25 10:04:52;;;;;;;8.18;6.62;;;;;;;13.28;93.86;98662.81;2171197;82;21699;-84
2022/05/25 10:07:53;;;;;;;8.00;7.20;;;;;;;13.34;93.23;98666.73;2171173;82;21010;-86
2022/05/25 10:11:01;;;;;;;8.38;7.47;;;;;;;13.37;93.20;98664.11;2171645;82;21001;-85
2022/05/25 10:14:04;;;;;;;11.38;9.20;;;;;;;13.45;93.41;98659.28;2160719;82;20972;-87
2022/05/25 10:17:05;;;;;;;10.78;9.68;;;;;;;13.56;94.43;98664.92;2160441;82;21383;-86
2022/05/25 10:20:05;;;;;;;11.48;10.38;;;;;;;13.64;94.71;98666.22;2170581;82;21047;-82
2022/05/25 10:23:05;;;;;;;14.18;11.20;;;;;;;13.81;93.89;98656.53;2170673;82;20905;-83
2022/05/25 10:26:05;;;;;;;15.15;10.98;;;;;;;13.88;94.10;98654.34;2170015;82;21403;-83
2022/05/25 10:29:06;;;;;;;14.85;10.32;;;;;;;13.98;93.85;98662.61;2170208;82;20995;-82
2022/05/25 10:38:44;;;;;;;15.78;14.03;;;;;;;14.09;94.11;98659.06;2170781;81;21011;-84
2022/05/25 10:41:50;;;;;;;15.93;13.20;;;;;;;14.06;94.26;98673.07;2169031;82;21393;-84
2022/05/25 10:44:50;;;;;;;15.05;13.15;;;;;;;14.05;94.53;98678.33;2169352;82;20988;-83
2022/05/25 10:47:51;;;;;;;19.05;17.07;;;;;;;13.91;93.17;98683.64;2170160;82;21000;-84
2022/05/25 10:50:51;;;;;;;15.60;14.00;;;;;;;13.76;93.08;98706.83;2170720;81;21039;-82
2022/05/25 10:57:10;;;;;;;10.70;9.60;;;;;;;13.55;92.17;98696.41;2171106;81;21352;-86
2022/05/25 11:00:11;;;;;;;9.85;8.95;;;;;;;13.66;92.86;98699.87;2169981;81;20987;-85
2022/05/25 11:03:13;;;;;;;11.60;10.48;;;;;;;13.68;91.58;98692.43;2158796;82;20980;-85
2022/05/25 11:06:13;;;;;;;10.03;9.03;;;;;;;13.78;91.13;98684.09;2170291;81;21000;-84
2022/05/25 11:09:17;;;;;;;11.80;7.33;;;;;;;13.89;91.26;98694.58;2170314;82;21015;-83
2022/05/25 11:12:19;;;;;;;6.08;5.47;;;;;;;13.87;90.05;98696.30;2169037;82;21349;-82
2022/05/25 11:15:18;;;;;;;4.65;3.87;;;;;;;13.95;89.33;98699.36;2169760;82;20961;-78
2022/05/25 11:18:18;;;;;;;4.75;3.70;;;;;;;14.01;86.43;98706.34;2171384;82;20925;-84
2022/05/25 11:21:18;;;;;;;3.87;3.58;;;;;;;13.92;86.55;98688.88;2170203;81;21111;-82
2022/05/25 11:24:19;;;;;;;4.45;3.52;;;;;;;13.97;87.26;98693.67;2169724;82;20957;-80
2022/05/25 11:27:19;;;;;;;4.10;3.65;;;;;;;14.00;87.42;98689.72;2169599;81;20964;-85
2022/05/25 11:30:20;;;;;;;3.30;2.95;;;;;;;14.01;87.22;98696.71;2169033;82;21004;-82
2022/05/25 11:33:20;;;;;;;4.20;2.87;;;;;;;13.87;85.23;98697.61;2172125;82;20972;-84
2022/05/25 11:36:21;;;;;;;5.25;3.30;;;;;;;13.77;87.04;98697.21;2168692;82;21349;-81
2022/05/25 11:39:21;;;;;;;3.30;3.00;;;;;;;13.78;86.44;98691.96;2170942;81;20960;-81
2022/05/25 11:42:21;;;;;;;5.58;3.20;;;;;;;13.77;86.93;98683.66;2172367;82;21012;-83
2022/05/25 11:45:22;;;;;;;5.70;3.10;;;;;;;13.79;86.60;98681.90;2171319;82;21036;-81
2022/05/25 11:48:22;;;;;;;4.20;2.92;;;;;;;13.77;86.58;98686.28;2170851;82;20965;-81
2022/05/25 11:51:22;;;;;;;4.15;3.72;;;;;;;13.78;86.85;98690.65;2170547;82;21036;-80
2022/05/25 11:54:24;;;;;;;3.98;3.60;;;;;;;13.79;88.15;98688.90;2171243;82;20978;-81
2022/05/25 11:57:23;;;;;;;6.62;3.80;;;;;;;13.77;87.46;98691.97;2170620;82;21387;-82
2022/05/25 12:00:26;;;;;;;4.62;3.80;;;;;;;13.78;87.92;98686.72;2170872;82;20932;-82
2022/05/25 12:03:24;;;;;;;6.17;4.08;;;;;;;13.83;88.31;98691.50;2170902;82;20897;-84
2022/05/25 12:06:25;;;;;;;4.55;3.77;;;;;;;13.83;87.75;98695.88;2170271;82;21345;-83
2022/05/25 12:09:25;;;;;;;4.05;3.47;;;;;;;13.80;87.74;98703.32;2169975;82;21016;-82
2022/05/25 12:12:25;;;;;;;5.45;4.05;;;;;;;13.79;88.23;98713.38;2170252;82;20995;-82
2022/05/25 12:15:26;;;;;;;5.12;3.27;;;;;;;13.79;88.63;98728.25;2170293;82;21793;-82
2022/05/25 12:18:26;;;;;;;5.97;3.62;;;;;;;13.77;88.00;98730.88;2170092;82;20940;-82
2022/05/25 12:21:27;;;;;;;4.42;3.45;;;;;;;13.72;87.93;98737.89;2170226;82;21024;-82
2022/05/25 12:24:27;;;;;;;4.22;3.83;;;;;;;13.65;87.66;98746.64;2170647;82;21481;-83
2022/05/25 12:27:28;;;;;;;3.45;2.98;;;;;;;13.61;88.80;98751.46;2170346;82;21503;-80
2022/05/25 12:30:28;;;;;;;7.08;3.52;;;;;;;13.59;88.80;98761.08;2169289;82;20948;-82
2022/05/25 12:33:28;;;;;;;3.85;3.55;;;;;;;13.49;89.41;98777.27;2169527;82;21001;-81
2022/05/25 12:36:29;;;;;;;5.20;4.05;;;;;;;13.39;90.01;98780.33;2169976;82;20901;-82
2022/05/25 12:39:29;;;;;;;6.40;4.30;;;;;;;13.33;89.91;98776.41;2169967;82;21825;-84
2022/05/25 12:42:29;;;;;;;4.62;4.17;;;;;;;13.29;90.64;98779.90;2170211;82;20960;-80
2022/05/25 12:48:49;;;;;;;9.63;4.78;;;;;;;13.19;90.91;98787.77;2169730;81;20968;-82
2022/05/25 12:51:49;;;;;;;6.12;3.67;;;;;;;13.17;93.37;98787.76;2169761;82;21443;-81
2022/05/25 12:54:50;;;;;;;4.10;3.60;;;;;;;13.32;91.97;98799.56;2170141;82;21013;-85
2022/05/25 12:57:50;;;;;;;4.42;3.20;;;;;;;13.27;91.14;98799.99;2170594;82;20952;-82
2022/05/25 13:00:50;;;;;;;3.08;2.77;;;;;;;13.17;91.24;98798.24;2170646;82;20921;-83
2022/05/25 13:03:51;;;;;;;5.20;3.10;;;;;;;13.12;90.91;98796.02;2170611;82;20973;-87
2022/05/25 13:06:51;;;;;;;5.00;2.52;;;;;;;13.04;91.09;98812.17;2170688;82;20992;-84
2022/05/25 13:09:51;;;;;;;5.00;2.55;;;;;;;13.05;91.05;98812.61;2170698;82;21032;-83
2022/05/25 13:12:52;;;;;;;2.90;2.55;;;;;;;13.04;91.36;98806.94;2170305;82;20932;-79
2022/05/25 13:15:52;;;;;;;3.25;2.27;;;;;;;13.08;90.60;98802.13;2171235;82;21385;-84
2022/05/25 13:18:54;;;;;;;2.87;2.60;;;;;;;13.05;90.26;98803.44;2170649;82;21004;-79
2022/05/25 13:22:02;;;;;;;3.00;2.10;;;;;;;13.02;91.21;98807.37;2170892;82;21440;-85
2022/05/25 13:24:53;;;;;;;4.67;2.10;;;;;;;12.94;91.21;98810.38;2170864;82;21000;-85
2022/05/25 13:27:56;;;;;;;4.92;2.67;;;;;;;12.90;91.54;98812.55;2170895;82;21408;-82
2022/05/25 13:30:54;;;;;;;2.72;2.30;;;;;;;12.94;91.60;98809.06;2171611;82;21356;-84
2022/05/25 13:33:56;;;;;;;2.55;1.98;;;;;;;12.90;91.54;98816.05;2171793;82;20992;-84
2022/05/25 13:36:55;;;;;;;3.42;1.90;;;;;;;12.81;90.83;98827.81;2171802;82;21015;-84
2022/05/25 13:39:56;;;;;;;2.02;1.85;;;;;;;12.73;90.16;98830.84;2170877;81;20992;-83
2022/05/25 13:42:56;;;;;;;5.22;2.08;;;;;;;12.64;88.74;98838.23;2169760;81;20917;-82
2022/05/25 13:45:56;;;;;;;1.60;1.50;;;;;;;12.58;88.34;98824.25;2169789;82;21048;-82
2022/05/25 13:48:57;;;;;;;2.00;1.90;;;;;;;12.58;87.90;98832.98;2170393;82;20929;-86
2022/05/25 13:51:57;;;;;;;4.35;1.65;;;;;;;12.62;88.54;98832.12;2169155;82;21036;-84
2022/05/25 13:54:57;;;;;;;4.65;1.98;;;;;;;12.63;88.07;98843.03;2168986;82;21016;-84
2022/05/25 13:58:00;;;;;;;1.85;1.75;;;;;;;12.61;87.25;98833.42;2168815;82;21013;-85
2022/05/25 14:00:58;;;;;;;4.97;2.00;;;;;;;12.69;87.88;98816.87;2169349;82;20992;-85
2022/05/25 14:03:59;;;;;;;4.67;4.22;;;;;;;12.96;87.89;98809.95;2170782;82;20960;-85
2022/05/25 14:06:59;;;;;;;4.67;3.17;;;;;;;13.36;87.68;98796.06;2169964;82;21043;-86
2022/05/25 14:13:18;;;;;;;2.35;2.08;;;;;;;14.60;87.34;98787.48;2169742;81;21360;-81
2022/05/25 14:16:19;;;;;;;2.95;1.70;;;;;;;15.25;85.65;98784.02;2171412;82;20945;-80
2022/05/25 14:19:19;;;;;;;2.22;1.60;;;;;;;16.15;81.43;98774.87;2170703;82;20930;-82
2022/05/25 14:22:20;;;;;;;4.65;1.90;;;;;;;16.70;78.56;98773.36;2171690;82;21076;-81
2022/05/25 14:25:20;;;;;;;1.47;1.35;;;;;;;16.51;75.99;98770.94;2171196;81;20925;-82
2022/05/25 14:28:20;;;;;;;3.47;1.47;;;;;;;16.33;75.21;98765.00;2171148;81;21583;-84